createdAt,value
2018-10-06T00:00:20.599Z,99.90
2018-10-06T00:02:49.050Z,99.90
2018-10-06T00:05:17.518Z,99.90
2018-10-06T00:07:46.099Z,99.90
2018-10-06T00:10:14.558Z,99.90
2018-10-06T00:12:43.001Z,99.90
2018-10-06T00:15:11.551Z,99.90
2018-10-06T00:17:40.201Z,99.90
2018-10-06T00:20:09.105Z,99.90
2018-10-06T00:22:37.551Z,99.90
2018-10-06T00:25:06.208Z,99.90
2018-10-06T00:27:34.891Z,99.90
2018-10-06T00:30:03.683Z,99.90
2018-10-06T00:32:32.093Z,99.90
2018-10-06T00:35:00.706Z,99.90
2018-10-06T00:37:29.198Z,99.90
2018-10-06T00:39:57.740Z,99.90
2018-10-06T00:42:26.318Z,99.90
2018-10-06T00:44:54.782Z,99.90
2018-10-06T00:47:23.346Z,99.90
2018-10-06T00:49:51.988Z,99.90
2018-10-06T00:52:20.457Z,99.90
2018-10-06T00:54:49.015Z,99.90
2018-10-06T00:57:17.425Z,99.90
2018-10-06T00:59:45.948Z,99.90
2018-10-06T01:02:14.367Z,99.90
2018-10-06T01:04:42.807Z,99.90
2018-10-06T01:07:11.388Z,99.90
2018-10-06T01:09:40.003Z,99.90
2018-10-06T01:12:08.508Z,99.90
2018-10-06T01:14:36.999Z,99.90
2018-10-06T01:17:05.448Z,99.90
2018-10-06T01:19:35.535Z,99.90
2018-10-06T01:22:04.189Z,99.90
2018-10-06T01:24:32.637Z,99.90
2018-10-06T01:27:01.044Z,99.90
2018-10-06T01:29:32.303Z,99.90
2018-10-06T01:32:02.300Z,99.90
2018-10-06T01:34:30.742Z,99.90
2018-10-06T01:36:59.528Z,99.90
2018-10-06T01:39:27.983Z,99.90
2018-10-06T01:41:56.441Z,99.90
2018-10-06T01:44:24.888Z,99.90
2018-10-06T01:46:53.490Z,99.90
2018-10-06T01:49:22.297Z,99.90
2018-10-06T01:51:51.046Z,99.90
2018-10-06T01:54:26.032Z,99.90
2018-10-06T01:56:54.547Z,99.90
2018-10-06T01:59:23.035Z,99.90
2018-10-06T02:01:51.522Z,99.90
2018-10-06T02:04:24.041Z,99.90
2018-10-06T02:06:52.968Z,99.90
2018-10-06T02:09:21.414Z,99.90
2018-10-06T02:11:50.064Z,99.90
2018-10-06T02:14:18.507Z,99.90
2018-10-06T02:16:47.206Z,99.90
2018-10-06T02:19:15.806Z,99.90
2018-10-06T02:21:44.366Z,99.90
2018-10-06T02:24:13.015Z,99.90
2018-10-06T02:26:41.498Z,99.90
2018-10-06T02:29:10.107Z,99.90
2018-10-06T02:31:38.532Z,99.90
2018-10-06T02:34:07.171Z,99.90
2018-10-06T02:36:35.714Z,99.90
2018-10-06T02:39:04.976Z,99.90
2018-10-06T02:41:33.415Z,99.90
2018-10-06T02:44:01.859Z,99.90
2018-10-06T02:46:30.347Z,99.90
2018-10-06T02:48:59.930Z,99.90
2018-10-06T02:51:28.477Z,99.90
2018-10-06T02:53:57.009Z,99.90
2018-10-06T02:56:25.426Z,99.90
2018-10-06T02:58:53.912Z,99.90
2018-10-06T03:01:22.580Z,99.90
2018-10-06T03:03:51.060Z,99.90
2018-10-06T03:06:19.573Z,99.90
2018-10-06T03:08:48.048Z,99.90
2018-10-06T03:11:16.506Z,99.90
2018-10-06T03:13:44.969Z,99.90
2018-10-06T03:16:13.443Z,99.90
2018-10-06T03:18:41.941Z,99.90
2018-10-06T03:21:10.533Z,99.90
2018-10-06T03:23:39.022Z,99.90
2018-10-06T03:26:07.461Z,99.90
2018-10-06T03:28:35.913Z,99.90
2018-10-06T03:31:04.714Z,99.90
2018-10-06T03:33:33.328Z,99.90
2018-10-06T03:36:02.004Z,99.90
2018-10-06T03:38:30.461Z,99.90
2018-10-06T03:40:58.984Z,99.90
2018-10-06T03:43:27.499Z,99.90
2018-10-06T03:45:55.947Z,99.90
2018-10-06T03:48:24.442Z,99.90
2018-10-06T03:50:52.873Z,99.90
2018-10-06T03:53:21.422Z,99.90
2018-10-06T03:55:50.143Z,99.90
2018-10-06T03:58:18.614Z,99.90
2018-10-06T04:00:47.066Z,99.90
2018-10-06T04:03:15.620Z,99.90
2018-10-06T04:05:44.096Z,99.90
2018-10-06T04:08:12.590Z,99.90
2018-10-06T04:10:41.053Z,99.90
2018-10-06T04:13:09.966Z,99.90
2018-10-06T04:15:38.433Z,99.90
2018-10-06T04:18:07.094Z,99.90
2018-10-06T04:20:35.504Z,99.90
2018-10-06T04:23:03.989Z,99.90
2018-10-06T04:25:32.466Z,99.90
2018-10-06T04:28:01.082Z,99.90
2018-10-06T04:30:29.515Z,99.90
2018-10-06T04:32:57.983Z,99.90
2018-10-06T04:35:26.476Z,99.90
2018-10-06T04:37:54.908Z,99.90
2018-10-06T04:40:23.384Z,99.90
2018-10-06T04:42:51.889Z,99.90
2018-10-06T04:45:20.632Z,99.90
2018-10-06T04:47:49.071Z,99.90
2018-10-06T04:50:17.561Z,99.90
2018-10-06T04:52:46.044Z,99.90
2018-10-06T04:55:14.519Z,99.90
2018-10-06T04:57:42.948Z,99.90
2018-10-06T05:00:11.621Z,99.90
2018-10-06T05:02:40.175Z,99.90
2018-10-06T05:05:08.650Z,99.90
2018-10-06T05:07:37.132Z,99.90
2018-10-06T05:10:05.580Z,99.90
2018-10-06T05:12:34.059Z,99.90
2018-10-06T05:15:02.532Z,99.90
2018-10-06T05:17:31.318Z,99.90
2018-10-06T05:19:59.773Z,99.90
2018-10-06T05:22:28.200Z,99.90
2018-10-06T05:24:56.723Z,99.90
2018-10-06T05:27:31.534Z,99.90
2018-10-06T05:30:00.116Z,99.90
2018-10-06T05:32:28.827Z,99.90
2018-10-06T05:34:57.294Z,99.90
2018-10-06T05:37:25.700Z,99.90
2018-10-06T05:39:54.140Z,99.90
2018-10-06T05:42:22.597Z,99.90
2018-10-06T05:44:51.097Z,99.90
2018-10-06T05:47:19.500Z,99.90
2018-10-06T05:49:47.959Z,99.90
2018-10-06T05:52:16.474Z,99.90
2018-10-06T05:54:45.125Z,99.90
2018-10-06T05:57:13.607Z,99.90
2018-10-06T05:59:42.083Z,99.90
2018-10-06T06:02:10.868Z,99.90
2018-10-06T06:04:39.560Z,99.90
2018-10-06T06:07:08.356Z,99.90
2018-10-06T06:09:36.950Z,99.90
2018-10-06T06:12:05.397Z,99.90
2018-10-06T06:14:33.880Z,99.90
2018-10-06T06:17:02.325Z,99.90
2018-10-06T06:19:30.803Z,99.90
2018-10-06T06:21:59.265Z,99.90
2018-10-06T06:24:27.691Z,99.90
2018-10-06T06:26:56.154Z,99.90
2018-10-06T06:29:24.569Z,99.90
2018-10-06T06:31:53.063Z,99.90
2018-10-06T06:34:21.674Z,99.90
2018-10-06T06:36:50.146Z,99.90
2018-10-06T06:39:18.588Z,99.90
2018-10-06T06:41:47.040Z,99.90
2018-10-06T06:44:15.971Z,99.90
2018-10-06T06:46:44.571Z,99.90
2018-10-06T06:49:13.441Z,99.90
2018-10-06T06:51:41.991Z,99.90
2018-10-06T06:54:10.487Z,99.90
2018-10-06T06:56:39.034Z,99.90
2018-10-06T06:59:07.444Z,99.90
2018-10-06T07:01:35.912Z,99.90
2018-10-06T07:04:04.404Z,99.90
2018-10-06T07:06:32.866Z,99.90
2018-10-06T07:09:01.298Z,99.90
2018-10-06T07:11:29.758Z,99.90
2018-10-06T07:13:58.225Z,99.90
2018-10-06T07:16:26.824Z,99.90
2018-10-06T07:18:55.285Z,99.90
2018-10-06T07:21:23.851Z,99.90
2018-10-06T07:23:52.327Z,99.90
2018-10-06T07:26:20.841Z,99.90
2018-10-06T07:28:49.316Z,99.90
2018-10-06T07:31:17.762Z,99.90
2018-10-06T07:33:46.226Z,99.90
2018-10-06T07:36:14.664Z,99.90
2018-10-06T07:38:43.100Z,99.90
2018-10-06T07:41:11.738Z,99.90
2018-10-06T07:43:40.210Z,99.90
2018-10-06T07:46:08.786Z,99.90
2018-10-06T07:48:37.341Z,99.50
2018-10-06T07:51:05.922Z,98.40
2018-10-06T07:53:34.383Z,98.10
2018-10-06T07:56:02.839Z,97.80
2018-10-06T07:58:31.287Z,97.20
2018-10-06T08:00:59.755Z,96.40
2018-10-06T08:03:28.236Z,96.50
2018-10-06T08:05:56.647Z,95.70
2018-10-06T08:08:25.094Z,94.80
2018-10-06T08:10:53.538Z,95.00
2018-10-06T08:13:22.151Z,94.30
2018-10-06T08:15:50.570Z,93.30
2018-10-06T08:18:19.197Z,92.70
2018-10-06T08:20:47.839Z,92.80
2018-10-06T08:23:16.363Z,92.90
2018-10-06T08:25:44.885Z,92.10
2018-10-06T08:28:13.678Z,92.40
2018-10-06T08:30:42.178Z,92.50
2018-10-06T08:33:10.810Z,91.80
2018-10-06T08:35:39.356Z,91.50
2018-10-06T08:38:07.986Z,91.20
2018-10-06T08:40:36.490Z,91.20
2018-10-06T08:43:04.988Z,90.60
2018-10-06T08:45:33.449Z,90.70
2018-10-06T08:48:02.201Z,90.50
2018-10-06T08:50:30.657Z,90.40
2018-10-06T08:52:59.548Z,91.00
2018-10-06T08:55:27.965Z,90.20
2018-10-06T08:57:56.638Z,90.40
2018-10-06T09:00:25.127Z,90.20
2018-10-06T09:02:53.645Z,88.50
2018-10-06T09:05:22.323Z,88.00
2018-10-06T09:07:51.341Z,87.00
2018-10-06T09:10:19.807Z,86.50
2018-10-06T09:12:48.367Z,84.80
2018-10-06T09:15:16.934Z,83.40
2018-10-06T09:17:45.475Z,80.20
2018-10-06T09:20:14.228Z,78.70
2018-10-06T09:22:42.835Z,77.30
2018-10-06T09:25:11.358Z,77.30
2018-10-06T09:27:39.824Z,75.80
2018-10-06T09:30:08.893Z,77.10
2018-10-06T09:32:37.772Z,75.60
2018-10-06T09:35:07.009Z,75.50
2018-10-06T09:37:35.502Z,74.50
2018-10-06T09:40:03.995Z,74.50
2018-10-06T09:42:32.569Z,74.70
2018-10-06T09:45:01.503Z,74.30
2018-10-06T09:47:29.997Z,74.30
2018-10-06T09:49:58.493Z,73.50
2018-10-06T09:52:26.988Z,72.80
2018-10-06T09:54:55.471Z,73.30
2018-10-06T09:57:24.304Z,73.80
2018-10-06T09:59:55.588Z,73.90
2018-10-06T10:02:29.701Z,73.30
2018-10-06T10:05:03.582Z,74.20
2018-10-06T10:07:33.980Z,73.50
2018-10-06T10:10:03.287Z,73.30
2018-10-06T10:12:31.822Z,73.30
2018-10-06T10:15:00.297Z,74.20
2018-10-06T10:17:28.800Z,73.30
2018-10-06T10:19:57.510Z,73.50
2018-10-06T10:22:26.280Z,73.30
2018-10-06T10:24:54.835Z,73.00
2018-10-06T10:27:23.386Z,73.00
2018-10-06T10:29:51.900Z,72.80
2018-10-06T10:32:20.343Z,72.90
2018-10-06T10:34:48.829Z,73.40
2018-10-06T10:37:17.538Z,72.50
2018-10-06T10:39:47.591Z,71.90
2018-10-06T10:42:16.179Z,71.50
2018-10-06T10:44:44.711Z,71.80
2018-10-06T10:47:13.219Z,70.90
2018-10-06T10:49:41.665Z,71.20
2018-10-06T10:52:10.106Z,71.00
2018-10-06T10:54:38.726Z,71.00
2018-10-06T10:57:07.284Z,70.70
2018-10-06T10:59:36.276Z,70.20
2018-10-06T11:02:04.814Z,69.90
2018-10-06T11:04:33.483Z,69.50
2018-10-06T11:07:02.131Z,69.50
2018-10-06T11:09:30.615Z,68.10
2018-10-06T11:11:59.159Z,68.00
2018-10-06T11:14:27.802Z,69.50
2018-10-06T11:16:56.241Z,67.70
2018-10-06T11:19:24.742Z,67.20
2018-10-06T11:21:53.256Z,64.90
2018-10-06T11:24:21.716Z,63.90
2018-10-06T11:26:50.255Z,63.90
2018-10-06T11:29:18.856Z,63.40
2018-10-06T11:31:47.609Z,62.40
2018-10-06T11:34:16.037Z,63.40
2018-10-06T11:36:44.487Z,62.40
2018-10-06T11:39:12.939Z,62.90
2018-10-06T11:41:41.719Z,63.10
2018-10-06T11:44:10.135Z,62.50
2018-10-06T11:46:39.173Z,63.00
2018-10-06T11:49:07.869Z,63.90
2018-10-06T11:51:36.388Z,57.70
2018-10-06T11:54:04.898Z,56.60
2018-10-06T11:56:33.509Z,56.60
2018-10-06T11:59:01.976Z,55.80
2018-10-06T12:01:30.643Z,56.10
2018-10-06T12:03:59.073Z,56.20
2018-10-06T12:06:27.680Z,56.30
2018-10-06T12:08:56.163Z,55.90
2018-10-06T12:11:24.779Z,56.20
2018-10-06T12:13:53.585Z,55.40
2018-10-06T12:16:22.071Z,55.20
2018-10-06T12:18:50.842Z,54.90
2018-10-06T12:21:19.609Z,54.80
2018-10-06T12:23:48.723Z,54.10
2018-10-06T12:26:17.213Z,54.20
2018-10-06T12:28:45.663Z,54.10
2018-10-06T12:31:14.097Z,53.80
2018-10-06T12:33:43.210Z,53.10
2018-10-06T12:36:11.964Z,50.80
2018-10-06T12:38:40.394Z,50.80
2018-10-06T12:41:09.742Z,49.70
2018-10-06T12:43:38.812Z,49.80
2018-10-06T12:46:07.858Z,48.60
2018-10-06T12:48:36.845Z,48.40
2018-10-06T12:51:05.959Z,48.30
2018-10-06T12:53:34.951Z,46.70
2018-10-06T12:56:10.794Z,45.60
2018-10-06T12:58:39.811Z,44.50
2018-10-06T13:01:09.051Z,45.10
2018-10-06T13:03:38.091Z,44.70
2018-10-06T13:06:07.293Z,45.40
2018-10-06T13:08:36.454Z,46.70
2018-10-06T13:11:05.510Z,47.30
2018-10-06T13:13:34.719Z,47.50
2018-10-06T13:16:03.808Z,47.40
2018-10-06T13:18:32.844Z,47.00
2018-10-06T13:21:01.927Z,48.00
2018-10-06T13:23:30.913Z,48.70
2018-10-06T13:26:01.528Z,60.10
2018-10-06T13:28:30.924Z,54.00
2018-10-06T13:31:00.246Z,54.80
2018-10-06T13:33:29.264Z,54.50
2018-10-06T13:35:58.297Z,53.00
2018-10-06T13:38:27.609Z,50.30
2018-10-06T13:40:56.748Z,49.10
2018-10-06T13:43:25.874Z,49.50
2018-10-06T13:45:54.889Z,46.50
2018-10-06T13:48:24.305Z,46.50
2018-10-06T13:50:53.361Z,44.50
2018-10-06T13:53:22.416Z,39.50
2018-10-06T13:55:51.509Z,37.80
2018-10-06T13:58:20.617Z,34.30
2018-10-06T14:00:49.865Z,33.40
2018-10-06T14:03:19.312Z,31.80
2018-10-06T14:05:48.335Z,29.30
2018-10-06T14:08:17.413Z,28.60
2018-10-06T14:10:46.383Z,28.30
2018-10-06T14:13:15.497Z,26.50
2018-10-06T14:15:44.542Z,26.20
2018-10-06T14:18:13.581Z,25.90
2018-10-06T14:20:42.596Z,25.60
2018-10-06T14:23:11.836Z,25.20
2018-10-06T14:25:40.952Z,25.40
2018-10-06T14:28:10.204Z,25.50
2018-10-06T14:30:39.244Z,26.20
2018-10-06T14:33:08.329Z,26.50
2018-10-06T14:35:37.340Z,25.90
2018-10-06T14:38:06.426Z,26.20
2018-10-06T14:40:35.958Z,25.20
2018-10-06T14:43:05.350Z,24.50
2018-10-06T14:45:34.442Z,24.50
2018-10-06T14:48:03.695Z,24.50
2018-10-06T14:50:35.873Z,24.90
2018-10-06T14:53:05.489Z,25.00
2018-10-06T14:55:34.514Z,24.80
2018-10-06T14:58:04.835Z,25.00
2018-10-06T15:00:33.902Z,25.00
2018-10-06T15:03:02.937Z,25.30
2018-10-06T15:05:31.963Z,24.70
2018-10-06T15:08:01.396Z,25.00
2018-10-06T15:10:30.491Z,25.10
2018-10-06T15:12:59.600Z,25.90
2018-10-06T15:15:28.910Z,25.00
2018-10-06T15:17:58.624Z,25.30
2018-10-06T15:20:27.752Z,25.60
2018-10-06T15:22:57.122Z,26.50
2018-10-06T15:25:26.288Z,27.30
2018-10-06T15:27:56.018Z,29.10
2018-10-06T15:30:25.475Z,30.30
2018-10-06T15:32:54.548Z,31.10
2018-10-06T15:35:24.241Z,33.40
2018-10-06T15:37:53.573Z,36.40
2018-10-06T15:40:26.787Z,39.00
2018-10-06T15:42:56.015Z,41.20
2018-10-06T15:45:25.630Z,41.60
2018-10-06T15:47:54.759Z,43.20
2018-10-06T15:50:23.859Z,45.50
2018-10-06T15:52:53.339Z,48.10
2018-10-06T15:55:22.663Z,49.80
2018-10-06T15:57:52.135Z,51.50
2018-10-06T16:00:20.990Z,53.30
2018-10-06T16:02:50.104Z,55.30
2018-10-06T16:05:19.108Z,57.30
2018-10-06T16:07:47.798Z,59.00
2018-10-06T16:10:16.237Z,59.50
2018-10-06T16:12:44.668Z,60.70
2018-10-06T16:15:13.068Z,61.80
2018-10-06T16:17:42.494Z,62.70
2018-10-06T16:20:11.161Z,64.80
2018-10-06T16:22:39.631Z,64.90
2018-10-06T16:25:08.102Z,66.10
2018-10-06T16:27:36.657Z,66.80
2018-10-06T16:30:06.434Z,67.30
2018-10-06T16:32:35.314Z,69.30
2018-10-06T16:35:04.186Z,69.70
2018-10-06T16:37:33.626Z,70.80
2018-10-06T16:40:02.100Z,71.10
2018-10-06T16:42:30.562Z,72.20
2018-10-06T16:44:59.143Z,73.50
2018-10-06T16:47:27.682Z,74.30
2018-10-06T16:49:56.198Z,75.10
2018-10-06T16:52:24.698Z,76.10
2018-10-06T16:54:53.156Z,77.10
2018-10-06T16:57:21.870Z,77.90
2018-10-06T16:59:52.182Z,78.80
2018-10-06T17:02:20.964Z,79.30
2018-10-06T17:04:49.750Z,80.60
2018-10-06T17:07:18.297Z,80.50
2018-10-06T17:09:46.756Z,82.10
2018-10-06T17:12:15.225Z,83.50
2018-10-06T17:14:43.842Z,84.80
2018-10-06T17:17:12.280Z,85.80
2018-10-06T17:19:40.902Z,86.70
2018-10-06T17:22:09.345Z,87.30
2018-10-06T17:24:37.952Z,87.40
2018-10-06T17:27:06.634Z,88.90
2018-10-06T17:29:35.189Z,90.00
2018-10-06T17:32:03.732Z,90.30
2018-10-06T17:34:34.827Z,90.50
2018-10-06T17:37:03.471Z,90.70
2018-10-06T17:39:31.955Z,91.00
2018-10-06T17:42:00.438Z,91.00
2018-10-06T17:44:32.860Z,91.10
2018-10-06T17:47:01.437Z,91.40
2018-10-06T17:49:30.061Z,91.60
2018-10-06T17:51:58.568Z,91.60
2018-10-06T17:54:28.560Z,91.70
2018-10-06T17:56:57.043Z,91.70
2018-10-06T17:59:25.510Z,91.70
2018-10-06T18:01:54.174Z,91.90
2018-10-06T18:04:22.714Z,92.00
2018-10-06T18:06:51.407Z,92.30
2018-10-06T18:09:19.988Z,92.30
2018-10-06T18:11:48.458Z,92.40
2018-10-06T18:14:17.026Z,92.50
2018-10-06T18:16:45.655Z,92.60
2018-10-06T18:19:14.255Z,92.70
2018-10-06T18:21:42.712Z,92.90
2018-10-06T18:24:11.176Z,92.90
2018-10-06T18:26:39.603Z,93.00
2018-10-06T18:29:08.101Z,93.00
2018-10-06T18:31:36.771Z,93.10
2018-10-06T18:34:05.251Z,93.30
2018-10-06T18:36:34.096Z,93.30
2018-10-06T18:39:02.887Z,93.30
2018-10-06T18:41:31.345Z,93.50
2018-10-06T18:43:59.800Z,93.60
2018-10-06T18:46:28.379Z,93.60
2018-10-06T18:48:56.910Z,93.70
2018-10-06T18:51:25.378Z,93.90
2018-10-06T18:53:53.854Z,93.80
2018-10-06T18:56:22.286Z,93.90
2018-10-06T18:58:50.955Z,93.90
2018-10-06T19:01:19.671Z,94.30
2018-10-06T19:03:48.365Z,94.20
2018-10-06T19:06:16.889Z,94.10
2018-10-06T19:08:45.496Z,94.10
2018-10-06T19:11:20.717Z,94.30
2018-10-06T19:13:49.183Z,94.10
2018-10-06T19:16:17.884Z,94.50
2018-10-06T19:18:46.627Z,94.40
2018-10-06T19:21:15.171Z,94.60
2018-10-06T19:23:43.970Z,94.90
2018-10-06T19:28:47.251Z,95.10
2018-10-06T19:31:15.857Z,95.40
2018-10-06T19:33:44.348Z,95.40
2018-10-06T19:36:12.930Z,95.00
2018-10-06T19:38:41.587Z,95.00
2018-10-06T19:41:10.037Z,94.60
2018-10-06T19:43:38.571Z,94.80
2018-10-06T19:46:07.093Z,94.50
2018-10-06T19:48:35.713Z,94.70
2018-10-06T19:51:04.285Z,94.70
2018-10-06T19:53:32.744Z,94.90
2018-10-06T19:56:01.244Z,94.80
2018-10-06T19:58:36.466Z,94.80
2018-10-06T20:01:05.274Z,94.60
2018-10-06T20:03:34.047Z,94.90
2018-10-06T20:06:05.838Z,95.00
2018-10-06T20:08:37.130Z,94.90
2018-10-06T20:11:06.137Z,94.50
2018-10-06T20:13:34.601Z,94.50
2018-10-06T20:16:03.129Z,94.50
2018-10-06T20:18:31.611Z,94.50
2018-10-06T20:21:00.141Z,94.50
2018-10-06T20:23:28.560Z,94.70
2018-10-06T20:25:57.370Z,94.50
2018-10-06T20:28:25.848Z,94.40
2018-10-06T20:30:54.734Z,94.00
2018-10-06T20:33:25.696Z,93.60
2018-10-06T20:35:54.181Z,93.40
2018-10-06T20:38:22.636Z,93.30
2018-10-06T20:40:51.435Z,93.80
2018-10-06T20:43:20.424Z,93.60
2018-10-06T20:45:49.310Z,93.40
2018-10-06T20:48:17.811Z,93.50
2018-10-06T20:50:46.347Z,93.60
2018-10-06T20:53:15.891Z,93.80
2018-10-06T20:55:44.720Z,93.10
2018-10-06T20:58:13.315Z,93.10
2018-10-06T21:00:41.783Z,93.20
2018-10-06T21:03:10.267Z,93.40
2018-10-06T21:05:38.900Z,93.20
2018-10-06T21:08:07.376Z,93.30
2018-10-06T21:10:35.994Z,93.50
2018-10-06T21:13:04.507Z,93.60
2018-10-06T21:15:33.102Z,92.90
2018-10-06T21:18:01.667Z,92.90
2018-10-06T21:20:30.280Z,92.50
2018-10-06T21:22:58.850Z,92.20
2018-10-06T21:25:27.473Z,91.40
2018-10-06T21:27:56.018Z,91.50
2018-10-06T21:30:24.636Z,91.10
2018-10-06T21:32:53.181Z,90.80
2018-10-06T21:35:21.781Z,90.60
2018-10-06T21:37:50.387Z,90.30
2018-10-06T21:40:18.831Z,89.90
2018-10-06T21:42:47.488Z,89.70
2018-10-06T21:45:16.053Z,89.40
2018-10-06T21:47:44.557Z,89.30
2018-10-06T21:50:13.403Z,90.00
2018-10-06T21:52:42.073Z,90.40
2018-10-06T21:55:10.648Z,90.50
2018-10-06T21:57:39.972Z,90.40
2018-10-06T22:00:09.435Z,90.50
2018-10-06T22:02:38.002Z,90.60
2018-10-06T22:05:06.574Z,91.00
2018-10-06T22:07:35.438Z,91.20
2018-10-06T22:10:04.134Z,91.70
2018-10-06T22:12:32.711Z,92.20
2018-10-06T22:15:01.495Z,92.20
2018-10-06T22:17:29.967Z,92.40
2018-10-06T22:19:58.430Z,93.40
2018-10-06T22:22:26.919Z,94.00
2018-10-06T22:24:55.768Z,93.80
2018-10-06T22:27:25.316Z,94.20
2018-10-06T22:29:54.160Z,94.50
2018-10-06T22:32:22.618Z,95.50
2018-10-06T22:34:51.245Z,96.30
2018-10-06T22:37:19.809Z,97.80
2018-10-06T22:39:48.933Z,97.50
2018-10-06T22:42:17.866Z,97.00
2018-10-06T22:44:46.388Z,97.40
2018-10-06T22:47:15.023Z,96.80
2018-10-06T22:49:43.670Z,96.90
2018-10-06T22:52:12.175Z,97.90
2018-10-06T22:54:40.748Z,98.60
2018-10-06T22:57:09.274Z,98.40
2018-10-06T22:59:37.871Z,98.90
2018-10-06T23:02:06.549Z,99.00
2018-10-06T23:04:35.229Z,99.60
2018-10-06T23:07:03.952Z,99.20
2018-10-06T23:09:32.440Z,99.40
2018-10-06T23:12:00.994Z,99.90
2018-10-06T23:14:29.608Z,99.90
2018-10-06T23:16:58.230Z,99.90
2018-10-06T23:19:26.742Z,99.90
2018-10-06T23:21:55.262Z,99.90
2018-10-06T23:24:24.058Z,99.90
2018-10-06T23:26:52.684Z,99.90
2018-10-06T23:29:21.141Z,99.90
2018-10-06T23:31:49.617Z,99.90
2018-10-06T23:34:18.143Z,99.90
2018-10-06T23:36:46.769Z,99.90
2018-10-06T23:39:15.337Z,99.90
2018-10-06T23:41:43.733Z,99.90
2018-10-06T23:44:12.299Z,99.90
2018-10-06T23:46:40.743Z,99.90
2018-10-06T23:49:09.648Z,99.90
2018-10-06T23:51:38.141Z,99.90
2018-10-06T23:54:07.388Z,99.90
2018-10-06T23:56:35.974Z,99.90
2018-10-06T23:59:04.528Z,99.90
